This is the latest recevied weather packets stored in our database for station/object IT9CYW-10. If no packets are shown the sender has not sent any weather packets the latest 10 day(s).
| Time | Temp. | Humidity | Pressure | Rain* | Wind** | Luminosity | Snow |
|---|---|---|---|---|---|---|---|
| 1777703287 | 16.11° C | 49% | 1002 hPa | - | - | 285 W/m² | - |
| 1777702387 | 15.56° C | 49% | 1002.2 hPa | - | - | 236 W/m² | - |
| 1777701487 | 15.56° C | 50% | 1002.2 hPa | - | - | 191 W/m² | - |
| 1777700587 | 15.56° C | 51% | 1002.2 hPa | - | - | 152 W/m² | - |
| 1777698788 | 14.44° C | 57% | 1002 hPa | - | - | 90 W/m² | - |
| 1777697888 | 13.33° C | 61% | 1002 hPa | - | - | 55 W/m² | - |
| 1777696988 | 12.78° C | 63% | 1001.7 hPa | - | - | 25 W/m² | - |
| 1777696088 | 12.22° C | 64% | 1002 hPa | - | - | 12 W/m² | - |
| 1777695188 | 12.78° C | 65% | 1001.7 hPa | - | - | 4 W/m² | - |
| 1777694288 | 12.22° C | 65% | 1001.5 hPa | - | - | 0 W/m² | - |
| 1777693387 | 12.78° C | 64% | 1001.5 hPa | - | - | 0 W/m² | - |
| 1777692487 | 12.78° C | 65% | 1001.5 hPa | - | - | 0 W/m² | - |
| 1777691587 | 12.78° C | 65% | 1001.5 hPa | - | - | 0 W/m² | - |
| 1777690687 | 12.78° C | 70% | 1001.5 hPa | - | - | 0 W/m² | - |
| 1777689787 | 12.78° C | 71% | 1001.5 hPa | - | - | 0 W/m² | - |
| 1777688887 | 12.78° C | 70% | 1001.7 hPa | - | - | 0 W/m² | - |
| 1777687987 | 12.22° C | 68% | 1001.5 hPa | - | - | 0 W/m² | - |
| 1777687086 | 12.22° C | 67% | 1001.5 hPa | - | - | 0 W/m² | - |
| 1777686186 | 12.78° C | 65% | 1001.7 hPa | - | - | 0 W/m² | - |
| 1777684386 | 12.22° C | 65% | 1001.7 hPa | - | - | 0 W/m² | - |
| 1777683485 | 12.22° C | 65% | 1001.5 hPa | - | - | 0 W/m² | - |
| 1777682585 | 12.78° C | 63% | 1001.7 hPa | - | - | 0 W/m² | - |
| 1777681685 | 13.33° C | 60% | 1001.5 hPa | - | - | 0 W/m² | - |
| 1777680784 | 13.89° C | 55% | 1001.5 hPa | - | - | 0 W/m² | - |
| 1777679884 | 13.89° C | 56% | 1001.5 hPa | - | - | 0 W/m² | - |
* Rain since midnight (hover to see other rain measurements)
** Current wind speed in m/s (hover to see current wind gust speed)